Weather observations for the past three days for
Alliance, Alliance Municipal Airport
| Date | Time (mdt) | Wind (mph) | Vis. (mi.) | Weather | Sky Cond. | Temperature (ºF) | Relative Humidity | Wind Chill (°F) | Heat Index (°F) | Pressure | Precipitation (in) | ||||||
|---|---|---|---|---|---|---|---|---|---|---|---|---|---|---|---|---|---|
| Air | Dwpt | 6 hour | altimeter (in) | sea level (mb) | 1 hr | 3 hr | 6 hr | ||||||||||
| Max. | Min. | ||||||||||||||||
| 09 | 17:53 | N 8 | 5.00 | Rain | OVC050 | 52 | 46.9 | 66.9 | 52 | 83% | 30.05 | 1016.9 | 0.01 | 0.01 | |||
| 09 | 16:53 | N 16 | 10.00 | Mostly Cloudy | BKN075 BKN095 | 57.9 | 41 | 53% | 30.02 | 1015.4 | |||||||
| 09 | 15:53 | NE 17 | 10.00 | Overcast | FEW045 BKN100 OVC120 | 61 | 39.9 | 46% | 29.99 | 1013.9 | |||||||
| 09 | 14:53 | NE 18 | 10.00 | Light Rain | FEW039 BKN070 OVC090 | 62.1 | 39.9 | 44% | 29.98 | 1013.7 | |||||||
| 09 | 13:53 | NE 18 G 24 | 10.00 | Overcast | BKN080 OVC100 | 64 | 35.1 | 34% | 29.97 | 1013.3 | |||||||
| 09 | 12:53 | N 17 | 10.00 | Overcast | FEW044 BKN070 OVC085 | 64 | 34 | 33% | 29.96 | 1012.6 | |||||||
| 09 | 11:53 | N 18 G 26 | 10.00 | A Few Clouds | FEW060 | 66 | 33.1 | 69.1 | 45 | 29% | 29.93 | 1011.3 | |||||
| 09 | 10:53 | N 20 G 28 | 10.00 | Mostly Cloudy | BKN085 | 64.9 | 35.1 | 33% | 29.92 | 1010.7 | |||||||
| 09 | 09:53 | N 16 | 10.00 | Mostly Cloudy | BKN085 | 66.9 | 35.1 | 31% | 29.89 | 1009.8 | |||||||
| 09 | 08:53 | N 23 G 31 | 10.00 | Mostly Cloudy and Breezy | BKN090 | 66 | 34 | 30% | 29.88 | 1009.0 | |||||||
| 09 | 07:53 | Calm | 10.00 | Overcast | OVC100 | 62.1 | 37.9 | 41% | 29.86 | 1008.3 | |||||||
| 09 | 06:53 | SW 3 | 10.00 | Mostly Cloudy | BKN110 | 53.1 | 39.9 | 61% | 29.85 | 1007.8 | |||||||
| 09 | 05:53 | S 3 | 10.00 | Fair | CLR | 45 | 37 | 48.9 | 41 | 74% | 29.83 | 1007.8 | |||||
| 09 | 04:53 | Calm | 10.00 | A Few Clouds | FEW120 | 46 | 37 | 71% | 29.82 | 1007.4 | |||||||
| 09 | 03:53 | W 5 | 10.00 | Fair | CLR | 44.1 | 35.1 | 71% | 42 | 29.81 | 1007.3 | ||||||
| 09 | 02:53 | W 5 | 10.00 | Fair | CLR | 41 | 34 | 76% | 38 | 29.83 | 1007.8 | ||||||
| 09 | 01:53 | W 5 | 10.00 | Fair | CLR | 43 | 33.1 | 68% | 41 | 29.83 | 1007.9 | ||||||
| 09 | 00:53 | S 3 | 10.00 | Fair | CLR | 45 | 33.1 | 63% | 29.85 | 1008.2 | |||||||
| 08 | 23:53 | Calm | 10.00 | Fair | CLR | 48.9 | 33.1 | 69.1 | 46 | 55% | 29.86 | 1008.9 | |||||
| 08 | 22:53 | S 6 | 10.00 | A Few Clouds | FEW120 | 50 | 32 | 50% | 48 | 29.87 | 1009.2 | ||||||
| 08 | 21:53 | SE 7 | 10.00 | Fair | CLR | 48.9 | 32 | 52% | 46 | 29.87 | 1009.1 | ||||||
| 08 | 20:53 | E 5 | 10.00 | A Few Clouds | FEW100 | 53.1 | 32 | 45% | 29.87 | 1009.2 | |||||||
| 08 | 18:53 | N 9 | 10.00 | Partly Cloudy | SCT110 | 69.1 | 30 | 23% | 29.85 | 1007.8 | |||||||
| 08 | 17:53 | NW 12 G 22 | 10.00 | Partly Cloudy | SCT110 | 69.1 | 28 | 72 | 64.9 | 22% | 29.86 | 1008.9 | |||||
| 08 | 16:53 | NW 13 | 10.00 | Partly Cloudy | SCT110 | 70 | 28.9 | 22% | 29.86 | 1009.0 | |||||||
| 08 | 15:53 | N 15 G 24 | 10.00 | Partly Cloudy | FEW100 SCT120 | 70 | 28 | 21% | 29.88 | 1009.5 | |||||||
| 08 | 14:53 | NW 17 G 30 | 10.00 | Partly Cloudy | SCT100 | 70 | 27 | 20% | 29.89 | 1010.1 | |||||||
| 08 | 13:53 | NW 17 G 30 | 10.00 | Partly Cloudy | SCT095 | 70 | 27 | 20% | 29.9 | 1010.3 | |||||||
| 08 | 12:53 | N 17 G 33 | 10.00 | Partly Cloudy | SCT090 | 71.1 | 26.1 | 19% | 29.91 | 1010.4 | |||||||
| 08 | 11:53 | N 20 G 26 | 10.00 | A Few Clouds | FEW080 | 66.9 | 28 | 69.1 | 43 | 23% | 29.93 | 1011.2 | |||||
| 08 | 10:53 | N 16 G 28 | 10.00 | Fair | CLR | 64 | 32 | 30% | 29.95 | 1011.9 | |||||||
| 08 | 09:53 | NW 17 G 29 | 10.00 | Fair | CLR | 64.9 | 37 | 36% | 29.95 | 1011.7 | |||||||
| 08 | 08:53 | NW 16 | 10.00 | Fair | CLR | 61 | 39.9 | 46% | 29.95 | 1011.6 | |||||||
| 08 | 07:53 | NW 16 | 10.00 | Fair | CLR | 55.9 | 41 | 57% | 29.95 | 1012.1 | |||||||
| 08 | 06:53 | NW 13 | 10.00 | Fair | CLR | 52 | 41 | 66% | 29.94 | 1011.6 | |||||||
| 08 | 05:53 | W 9 | 10.00 | Fair | CLR | 43 | 39 | 48 | 41 | 86% | 38 | 29.93 | 1012.0 | ||||
| 08 | 04:53 | W 9 | 10.00 | Fair | CLR | 44.1 | 39.9 | 85% | 40 | 29.92 | 1011.3 | ||||||
| 08 | 03:53 | W 9 | 10.00 | Fair | CLR | 43 | 39.9 | 89% | 38 | 29.92 | 1011.4 | ||||||
| 08 | 02:53 | W 7 | 10.00 | Fair | CLR | 42.1 | 39 | 89% | 38 | 29.91 | 1010.8 | ||||||
| 08 | 01:53 | W 7 | 10.00 | Fair | CLR | 44.1 | 39.9 | 85% | 41 | 29.9 | 1010.5 | ||||||
| 08 | 00:53 | NW 7 | 10.00 | Mostly Cloudy | BKN080 | 46.9 | 41 | 80% | 44 | 29.92 | 1010.8 | ||||||
| 07 | 23:53 | W 8 | 10.00 | Mostly Cloudy | BKN055 BKN070 | 48 | 43 | 63 | 48 | 83% | 45 | 29.92 | 1010.8 | ||||
| 07 | 22:53 | NW 3 | 10.00 | Mostly Cloudy | BKN060 BKN085 | 50 | 42.1 | 74% | 29.91 | 1010.6 | |||||||
| 07 | 21:53 | Calm | 10.00 | Fair | CLR | 50 | 42.1 | 74% | 29.9 | 1010.5 | |||||||
| 07 | 20:53 | NW 7 | 10.00 | Overcast | BKN060 OVC075 | 55.9 | 42.1 | 60% | 29.89 | 1009.8 | |||||||
| 07 | 19:53 | W 8 | 10.00 | Overcast | OVC095 | 55.9 | 43 | 62% | 29.86 | 1009.5 | |||||||
| 07 | 18:53 | SW 5 | 10.00 | Fair | CLR | 61 | 39.9 | 46% | 29.83 | 1008.9 | |||||||
| 07 | 17:53 | NW 7 | 10.00 | Light Rain | FEW046 BKN060 OVC090 | 61 | 42.1 | 70 | 57.9 | 50% | 29.84 | 1009.9 | |||||
| 07 | 16:53 | W 5 | 10.00 | Mostly Cloudy | SCT090 BKN110 | 64.9 | 35.1 | 33% | 29.81 | 1008.6 | |||||||
| 07 | 15:53 | NW 5 | 10.00 | Overcast | BKN080 OVC100 | 64.9 | 34 | 32% | 29.83 | 1009.2 | |||||||
| 07 | 14:53 | SW 14 G 24 | 10.00 | Overcast | OVC090 | 66.9 | 30.9 | 26% | 29.84 | 1009.4 | |||||||
| 07 | 13:53 | Vrbl 5 | 10.00 | Mostly Cloudy | SCT100 BKN120 | 69.1 | 27 | 21% | 29.84 | 1009.2 | |||||||
| 07 | 12:53 | SE 5 | 10.00 | Partly Cloudy | SCT090 | 66.9 | 25 | 20% | 29.85 | 1009.2 | |||||||
| 07 | 11:53 | NW 10 | 10.00 | Fair | CLR | 66.9 | 24.1 | 66.9 | 35.1 | 20% | 29.88 | 1009.9 | |||||
| 07 | 10:53 | N 7 G 17 | 10.00 | Fair | CLR | 64 | 24.1 | 22% | 29.89 | 1010.5 | |||||||
| 07 | 09:53 | N 9 | 10.00 | Fair | CLR | 61 | 25 | 25% | 29.89 | 1010.8 | |||||||
| 07 | 08:53 | N 14 G 20 | 10.00 | Fair | CLR | 59 | 28 | 31% | 29.88 | 1010.6 | |||||||
| 07 | 07:53 | NW 6 | 10.00 | Fair | CLR | 50 | 30 | 46% | 48 | 29.88 | 1011.1 | ||||||
| 07 | 06:53 | Calm | 10.00 | Fair | CLR | 41 | 30 | 65% | 29.86 | 1010.5 | |||||||
| 07 | 05:53 | NW 7 | 10.00 | Fair | CLR | 35.1 | 27 | 41 | 28.9 | 72% | 30 | 29.84 | 1010.1 | ||||
| 07 | 04:53 | SW 7 | 10.00 | Fair | CLR | 32 | 26.1 | 79% | 26 | 29.83 | 1010.2 | ||||||
| 07 | 03:53 | SW 5 | 10.00 | Fair | CLR | 30 | 25 | 82% | 26 | 29.84 | 1010.4 | ||||||
| 07 | 02:53 | W 5 | 10.00 | Fair | CLR | 30 | 25 | 82% | 26 | 29.85 | 1011.2 | ||||||
| 07 | 01:53 | W 6 | 10.00 | Fair | CLR | 35.1 | 28 | 76% | 31 | 29.86 | 1011.1 | ||||||
| 07 | 00:53 | SW 16 | 10.00 | Fair | CLR | 39.9 | 28.9 | 65% | 32 | 29.88 | 1011.6 | ||||||
| 06 | 23:53 | SW 16 | 10.00 | Fair | CLR | 41 | 28 | 54 | 39.9 | 60% | 33 | 29.89 | 1012.1 | ||||
| 06 | 22:53 | SW 16 | 10.00 | Fair | CLR | 42.1 | 26.1 | 53% | 35 | 29.91 | 1013.0 | ||||||
| 06 | 21:53 | SW 15 | 10.00 | Fair | CLR | 43 | 26.1 | 51% | 36 | 29.93 | 1013.9 | ||||||
| 06 | 20:53 | SW 10 | 10.00 | Fair | CLR | 43 | 21.9 | 43% | 38 | 29.94 | 1014.3 | ||||||
| 06 | 19:53 | SW 8 | 10.00 | Fair | CLR | 45 | 19 | 35% | 41 | 29.95 | 1014.7 | ||||||
| 06 | 18:53 | W 18 G 25 | 10.00 | Fair | CLR | 53.1 | 17.1 | 24% | 29.96 | 1014.9 | |||||||
| Date | Time (mdt) | Wind (mph) | Vis. (mi.) | Weather | Sky Cond. | Air | Dwpt | Max. | Min. | Relative Humidity | Wind Chill (°F) | Heat Index (°F) | altimeter (in) | sea level (mb) | 1 hr | 3 hr | 6 hr |
| 6 hour | |||||||||||||||||
| Temperature (ºF) | Pressure | Precipitation (in) | |||||||||||||||